sensor_id;sensor_type;location;lat;lon;timestamp;pressure;altitude;pressure_sealevel;temperature;humidity
53758;BME280;39674;59.860;30.672;2022-07-23T00:01:24;101019.28;;;19.25;79.51
53758;BME280;39674;59.860;30.672;2022-07-23T00:04:31;100994.03;;;19.06;79.87
53758;BME280;39674;59.860;30.672;2022-07-23T00:09:18;100963.44;;;18.88;79.56
53758;BME280;39674;59.860;30.672;2022-07-23T00:10:33;101047.16;;;19.34;79.45
53758;BME280;39674;59.860;30.672;2022-07-23T00:13:18;100951.34;;;18.72;79.67
53758;BME280;39674;59.860;30.672;2022-07-23T00:15:50;101023.72;;;19.15;80.50
53758;BME280;39674;59.860;30.672;2022-07-23T00:18:28;100951.56;;;18.69;79.68
53758;BME280;39674;59.860;30.672;2022-07-23T00:21:09;101014.63;;;19.06;80.79
53758;BME280;39674;59.860;30.672;2022-07-23T00:23:52;101019.03;;;18.96;81.01
53758;BME280;39674;59.860;30.672;2022-07-23T00:26:35;101015.50;;;18.95;81.01
53758;BME280;39674;59.860;30.672;2022-07-23T00:29:28;101053.66;;;19.08;82.11
53758;BME280;39674;59.860;30.672;2022-07-23T00:32:13;101023.28;;;18.87;81.92
53758;BME280;39674;59.860;30.672;2022-07-23T00:34:55;101023.56;;;18.72;82.02
53758;BME280;39674;59.860;30.672;2022-07-23T00:38:08;101051.03;;;18.97;81.76
53758;BME280;39674;59.860;30.672;2022-07-23T00:40:55;101025.03;;;18.76;81.35
53758;BME280;39674;59.860;30.672;2022-07-23T00:47:08;101027.69;;;18.76;81.09
53758;BME280;39674;59.860;30.672;2022-07-23T00:50:14;100979.09;;;18.49;80.72
53758;BME280;39674;59.860;30.672;2022-07-23T00:53:18;101017.38;;;18.60;81.44
53758;BME280;39674;59.860;30.672;2022-07-23T00:58:17;100959.44;;;18.27;81.16
53758;BME280;39674;59.860;30.672;2022-07-23T01:00:17;101033.28;;;18.73;82.31
53758;BME280;39674;59.860;30.672;2022-07-23T01:03:09;100965.53;;;18.18;83.13
53758;BME280;39674;59.860;30.672;2022-07-23T01:06:04;100992.50;;;18.37;82.65
53758;BME280;39674;59.860;30.672;2022-07-23T01:09:00;100960.53;;;18.13;82.98
53758;BME280;39674;59.860;30.672;2022-07-23T01:12:08;101019.84;;;18.41;82.61
53758;BME280;39674;59.860;30.672;2022-07-23T01:15:03;101035.50;;;18.57;83.58
53758;BME280;39674;59.860;30.672;2022-07-23T01:17:34;101041.59;;;18.59;84.26
53758;BME280;39674;59.860;30.672;2022-07-23T01:20:22;101031.63;;;18.50;84.45
53758;BME280;39674;59.860;30.672;2022-07-23T01:23:19;100965.28;;;18.09;84.44
53758;BME280;39674;59.860;30.672;2022-07-23T01:25:56;101007.31;;;18.30;85.10
53758;BME280;39674;59.860;30.672;2022-07-23T01:28:32;101056.91;;;18.57;85.64
53758;BME280;39674;59.860;30.672;2022-07-23T01:31:13;101070.75;;;18.62;85.83
53758;BME280;39674;59.860;30.672;2022-07-23T01:34:01;100959.06;;;17.98;85.84
53758;BME280;39674;59.860;30.672;2022-07-23T01:37:08;100977.91;;;18.07;85.86
53758;BME280;39674;59.860;30.672;2022-07-23T01:40:19;100976.72;;;18.11;84.75
53758;BME280;39674;59.860;30.672;2022-07-23T01:43:38;101026.41;;;18.48;85.51
53758;BME280;39674;59.860;30.672;2022-07-23T01:46:18;101081.19;;;18.76;84.45
53758;BME280;39674;59.860;30.672;2022-07-23T01:49:53;100952.53;;;18.13;84.63
53758;BME280;39674;59.860;30.672;2022-07-23T01:53:11;100991.03;;;18.33;85.16
53758;BME280;39674;59.860;30.672;2022-07-23T01:56:28;101002.22;;;18.38;85.85
53758;BME280;39674;59.860;30.672;2022-07-23T01:59:26;101026.03;;;18.53;85.63
53758;BME280;39674;59.860;30.672;2022-07-23T02:02:24;101064.41;;;18.74;86.18
53758;BME280;39674;59.860;30.672;2022-07-23T02:05:27;100986.16;;;18.27;85.81
53758;BME280;39674;59.860;30.672;2022-07-23T02:08:18;100985.59;;;18.23;86.17
53758;BME280;39674;59.860;30.672;2022-07-23T02:11:01;101040.72;;;18.58;86.48
53758;BME280;39674;59.860;30.672;2022-07-23T02:14:08;100933.69;;;17.92;86.06
53758;BME280;39674;59.860;30.672;2022-07-23T02:16:56;100999.28;;;18.30;86.70
53758;BME280;39674;59.860;30.672;2022-07-23T02:19:34;100929.53;;;17.88;86.89
53758;BME280;39674;59.860;30.672;2022-07-23T02:22:06;101015.81;;;18.35;87.22
53758;BME280;39674;59.860;30.672;2022-07-23T02:25:24;100989.22;;;18.22;87.36
53758;BME280;39674;59.860;30.672;2022-07-23T02:27:41;100942.53;;;17.92;87.36
53758;BME280;39674;59.860;30.672;2022-07-23T02:33:24;101039.63;;;18.61;86.97
53758;BME280;39674;59.860;30.672;2022-07-23T02:35:58;100919.56;;;17.90;87.05
53758;BME280;39674;59.860;30.672;2022-07-23T02:39:00;100993.94;;;18.41;86.71
53758;BME280;39674;59.860;30.672;2022-07-23T02:44:37;100997.69;;;18.62;86.03
53758;BME280;39674;59.860;30.672;2022-07-23T02:52:05;100891.50;;;18.18;85.49
53758;BME280;39674;59.860;30.672;2022-07-23T03:07:17;100895.69;;;18.55;84.81
53758;BME280;39674;59.860;30.672;2022-07-23T03:40:35;100907.69;;;19.26;83.02
53758;BME280;39674;59.860;30.672;2022-07-23T03:43:32;100851.47;;;19.04;82.75
53758;BME280;39674;59.860;30.672;2022-07-23T03:50:32;100975.34;;;19.91;82.60
53758;BME280;39674;59.860;30.672;2022-07-23T03:57:14;100926.56;;;19.76;82.20
53758;BME280;39674;59.860;30.672;2022-07-23T04:07:25;100918.50;;;19.97;81.13
53758;BME280;39674;59.860;30.672;2022-07-23T04:10:34;100839.19;;;19.54;80.41
53758;BME280;39674;59.860;30.672;2022-07-23T04:13:32;100910.63;;;20.06;80.65
53758;BME280;39674;59.860;30.672;2022-07-23T04:17:17;100914.47;;;20.13;80.64
53758;BME280;39674;59.860;30.672;2022-07-23T04:35:32;100893.84;;;20.74;78.38
53758;BME280;39674;59.860;30.672;2022-07-23T04:38:49;100905.00;;;20.89;77.83
53758;BME280;39674;59.860;30.672;2022-07-23T04:48:42;100863.94;;;21.36;76.24
53758;BME280;39674;59.860;30.672;2022-07-23T04:52:10;100870.78;;;21.68;75.23
53758;BME280;39674;59.860;30.672;2022-07-23T04:54:48;100866.81;;;21.72;75.08
53758;BME280;39674;59.860;30.672;2022-07-23T04:58:15;100854.28;;;21.90;74.38
53758;BME280;39674;59.860;30.672;2022-07-23T05:01:56;100822.56;;;21.94;73.77
53758;BME280;39674;59.860;30.672;2022-07-23T05:05:02;100790.41;;;21.92;72.72
53758;BME280;39674;59.860;30.672;2022-07-23T05:08:19;100829.28;;;22.26;72.01
53758;BME280;39674;59.860;30.672;2022-07-23T05:11:55;100821.72;;;22.39;71.10
53758;BME280;39674;59.860;30.672;2022-07-23T05:22:10;100825.69;;;22.98;69.43
53758;BME280;39674;59.860;30.672;2022-07-23T05:24:43;100846.44;;;23.23;68.94
53758;BME280;39674;59.860;30.672;2022-07-23T05:27:25;100879.28;;;23.53;67.86
53758;BME280;39674;59.860;30.672;2022-07-23T05:30:18;100851.00;;;23.58;67.76
53758;BME280;39674;59.860;30.672;2022-07-23T05:33:03;100773.50;;;23.17;66.86
53758;BME280;39674;59.860;30.672;2022-07-23T05:35:36;100854.00;;;23.89;67.16
53758;BME280;39674;59.860;30.672;2022-07-23T05:38:31;100807.22;;;23.64;65.80
53758;BME280;39674;59.860;30.672;2022-07-23T05:41:26;100830.91;;;23.86;65.68
53758;BME280;39674;59.860;30.672;2022-07-23T05:44:34;100786.66;;;23.54;64.91
53758;BME280;39674;59.860;30.672;2022-07-23T05:47:19;100856.47;;;24.09;66.32
53758;BME280;39674;59.860;30.672;2022-07-23T05:49:53;100768.84;;;23.78;65.42
53758;BME280;39674;59.860;30.672;2022-07-23T05:52:57;100815.34;;;24.23;63.51
53758;BME280;39674;59.860;30.672;2022-07-23T05:56:03;100800.50;;;24.27;63.53
53758;BME280;39674;59.860;30.672;2022-07-23T05:59:05;100764.06;;;24.07;62.77
53758;BME280;39674;59.860;30.672;2022-07-23T06:01:59;100760.84;;;24.11;62.88
53758;BME280;39674;59.860;30.672;2022-07-23T06:08:10;100816.91;;;24.67;62.67
53758;BME280;39674;59.860;30.672;2022-07-23T06:11:06;100749.06;;;24.45;62.98
53758;BME280;39674;59.860;30.672;2022-07-23T06:13:38;100803.22;;;25.02;60.90
53758;BME280;39674;59.860;30.672;2022-07-23T06:16:15;100785.13;;;25.10;61.84
53758;BME280;39674;59.860;30.672;2022-07-23T06:18:51;100783.34;;;25.42;60.98
53758;BME280;39674;59.860;30.672;2022-07-23T06:21:36;100775.25;;;25.34;59.73
53758;BME280;39674;59.860;30.672;2022-07-23T06:24:17;100824.22;;;25.87;58.85
53758;BME280;39674;59.860;30.672;2022-07-23T06:27:01;100785.72;;;25.77;58.36
53758;BME280;39674;59.860;30.672;2022-07-23T06:30:01;100780.00;;;25.72;59.41
53758;BME280;39674;59.860;30.672;2022-07-23T06:32:45;100814.13;;;26.04;60.45
53758;BME280;39674;59.860;30.672;2022-07-23T06:35:33;100750.09;;;25.97;58.46
53758;BME280;39674;59.860;30.672;2022-07-23T06:38:19;100771.13;;;26.18;57.03
53758;BME280;39674;59.860;30.672;2022-07-23T06:41:02;100750.06;;;26.28;57.48
53758;BME280;39674;59.860;30.672;2022-07-23T06:43:44;100736.59;;;26.20;57.06
53758;BME280;39674;59.860;30.672;2022-07-23T06:49:41;100794.44;;;26.65;56.03
53758;BME280;39674;59.860;30.672;2022-07-23T06:52:25;100797.94;;;26.89;55.09
53758;BME280;39674;59.860;30.672;2022-07-23T06:54:54;100776.28;;;26.89;55.58
53758;BME280;39674;59.860;30.672;2022-07-23T06:57:51;100706.97;;;26.80;54.31
53758;BME280;39674;59.860;30.672;2022-07-23T07:00:44;100751.63;;;27.14;53.21
53758;BME280;39674;59.860;30.672;2022-07-23T07:03:27;100763.03;;;27.24;53.11
53758;BME280;39674;59.860;30.672;2022-07-23T07:06:02;100685.91;;;26.82;52.96
53758;BME280;39674;59.860;30.672;2022-07-23T07:08:45;100760.22;;;27.32;52.94
53758;BME280;39674;59.860;30.672;2022-07-23T07:11:37;100745.63;;;27.33;52.97
53758;BME280;39674;59.860;30.672;2022-07-23T07:14:20;100738.06;;;27.44;52.76
53758;BME280;39674;59.860;30.672;2022-07-23T07:17:05;100736.19;;;27.59;52.67
53758;BME280;39674;59.860;30.672;2022-07-23T07:20:03;100739.66;;;27.75;51.67
53758;BME280;39674;59.860;30.672;2022-07-23T07:22:43;100679.25;;;27.29;52.17
53758;BME280;39674;59.860;30.672;2022-07-23T07:25:32;100742.53;;;27.88;52.24
53758;BME280;39674;59.860;30.672;2022-07-23T07:28:20;100738.25;;;28.00;50.13
53758;BME280;39674;59.860;30.672;2022-07-23T07:31:22;100770.59;;;28.39;50.53
53758;BME280;39674;59.860;30.672;2022-07-23T07:34:27;100666.75;;;27.86;51.54
53758;BME280;39674;59.860;30.672;2022-07-23T07:40:26;100700.94;;;28.24;49.17
53758;BME280;39674;59.860;30.672;2022-07-23T07:43:30;100735.47;;;28.59;49.70
53758;BME280;39674;59.860;30.672;2022-07-23T07:46:45;100670.16;;;28.45;49.59
53758;BME280;39674;59.860;30.672;2022-07-23T07:49:53;100684.63;;;28.81;49.43
53758;BME280;39674;59.860;30.672;2022-07-23T07:52:39;100732.50;;;29.72;48.52
53758;BME280;39674;59.860;30.672;2022-07-23T07:55:19;100672.84;;;29.71;47.83
53758;BME280;39674;59.860;30.672;2022-07-23T07:58:19;100758.41;;;30.17;45.70
53758;BME280;39674;59.860;30.672;2022-07-23T08:08:16;100730.94;;;30.18;46.61
53758;BME280;39674;59.860;30.672;2022-07-23T08:10:55;100724.88;;;30.56;46.12
53758;BME280;39674;59.860;30.672;2022-07-23T08:14:11;100701.63;;;30.27;44.02
53758;BME280;39674;59.860;30.672;2022-07-23T08:16:55;100750.06;;;30.59;45.07
53758;BME280;39674;59.860;30.672;2022-07-23T08:19:46;100750.44;;;30.69;43.88
53758;BME280;39674;59.860;30.672;2022-07-23T08:23:34;100707.69;;;30.36;44.11
53758;BME280;39674;59.860;30.672;2022-07-23T08:27:10;100656.56;;;29.98;43.64
53758;BME280;39674;59.860;30.672;2022-07-23T08:30:43;100655.34;;;29.93;43.92
53758;BME280;39674;59.860;30.672;2022-07-23T08:33:57;100739.13;;;30.32;45.22
53758;BME280;39674;59.860;30.672;2022-07-23T08:36:49;100705.59;;;30.11;43.91
53758;BME280;39674;59.860;30.672;2022-07-23T08:42:38;100705.59;;;30.65;45.21
53758;BME280;39674;59.860;30.672;2022-07-23T08:45:37;100708.00;;;31.13;44.42
53758;BME280;39674;59.860;30.672;2022-07-23T08:48:40;100670.88;;;31.05;42.77
53758;BME280;39674;59.860;30.672;2022-07-23T08:51:55;100713.50;;;31.52;43.17
53758;BME280;39674;59.860;30.672;2022-07-23T08:54:40;100741.56;;;31.66;42.83
53758;BME280;39674;59.860;30.672;2022-07-23T09:01:32;100736.47;;;31.31;43.25
53758;BME280;39674;59.860;30.672;2022-07-23T09:04:26;100700.03;;;30.98;43.31
53758;BME280;39674;59.860;30.672;2022-07-23T09:07:04;100725.06;;;31.47;43.50
53758;BME280;39674;59.860;30.672;2022-07-23T09:10:06;100731.16;;;31.88;42.63
53758;BME280;39674;59.860;30.672;2022-07-23T09:16:49;100699.28;;;32.07;40.66
53758;BME280;39674;59.860;30.672;2022-07-23T09:20:06;100697.44;;;32.01;42.21
53758;BME280;39674;59.860;30.672;2022-07-23T09:23:19;100623.56;;;31.32;40.44
53758;BME280;39674;59.860;30.672;2022-07-23T09:26:30;100704.09;;;31.41;41.63
53758;BME280;39674;59.860;30.672;2022-07-23T09:29:13;100701.47;;;31.60;42.50
53758;BME280;39674;59.860;30.672;2022-07-23T09:32:04;100648.31;;;31.37;40.33
53758;BME280;39674;59.860;30.672;2022-07-23T09:35:47;100685.91;;;31.99;41.09
53758;BME280;39674;59.860;30.672;2022-07-23T09:38:57;100668.22;;;31.76;39.73
53758;BME280;39674;59.860;30.672;2022-07-23T09:41:54;100677.53;;;31.94;40.96
53758;BME280;39674;59.860;30.672;2022-07-23T09:45:43;100664.69;;;32.01;39.48
53758;BME280;39674;59.860;30.672;2022-07-23T09:48:36;100635.13;;;31.66;40.01
53758;BME280;39674;59.860;30.672;2022-07-23T09:51:54;100613.72;;;31.56;39.74
53758;BME280;39674;59.860;30.672;2022-07-23T09:54:47;100631.56;;;31.91;41.19
53758;BME280;39674;59.860;30.672;2022-07-23T09:57:48;100604.00;;;31.35;40.33
53758;BME280;39674;59.860;30.672;2022-07-23T10:00:37;100603.25;;;30.69;41.24
53758;BME280;39674;59.860;30.672;2022-07-23T10:03:23;100641.69;;;31.06;42.48
53758;BME280;39674;59.860;30.672;2022-07-23T10:07:00;100656.69;;;31.35;40.23
53758;BME280;39674;59.860;30.672;2022-07-23T10:10:06;100596.81;;;31.02;40.28
53758;BME280;39674;59.860;30.672;2022-07-23T10:13:30;100653.03;;;31.16;41.04
53758;BME280;39674;59.860;30.672;2022-07-23T10:16:19;100602.63;;;30.67;42.56
53758;BME280;39674;59.860;30.672;2022-07-23T10:19:36;100589.00;;;30.67;42.40
53758;BME280;39674;59.860;30.672;2022-07-23T10:22:24;100644.78;;;30.71;42.96
53758;BME280;39674;59.860;30.672;2022-07-23T10:25:24;100646.81;;;30.82;43.90
53758;BME280;39674;59.860;30.672;2022-07-23T10:28:25;100609.47;;;30.89;43.04
53758;BME280;39674;59.860;30.672;2022-07-23T10:31:09;100628.16;;;31.38;42.00
53758;BME280;39674;59.860;30.672;2022-07-23T10:33:49;100655.16;;;31.08;42.23
53758;BME280;39674;59.860;30.672;2022-07-23T10:37:07;100629.72;;;30.35;43.74
53758;BME280;39674;59.860;30.672;2022-07-23T10:40:09;100656.19;;;31.00;43.75
53758;BME280;39674;59.860;30.672;2022-07-23T10:43:01;100618.88;;;31.39;42.65
53758;BME280;39674;59.860;30.672;2022-07-23T10:45:35;100566.66;;;30.97;41.38
53758;BME280;39674;59.860;30.672;2022-07-23T10:49:00;100615.75;;;31.74;41.78
53758;BME280;39674;59.860;30.672;2022-07-23T10:51:17;100660.38;;;32.37;40.98
53758;BME280;39674;59.860;30.672;2022-07-23T10:54:05;100575.38;;;32.27;39.74
53758;BME280;39674;59.860;30.672;2022-07-23T10:57:50;100580.63;;;32.03;37.45
53758;BME280;39674;59.860;30.672;2022-07-23T11:00:39;100576.66;;;31.16;39.12
53758;BME280;39674;59.860;30.672;2022-07-23T11:03:35;100682.50;;;31.40;40.80
53758;BME280;39674;59.860;30.672;2022-07-23T11:06:23;100638.78;;;31.01;41.69
53758;BME280;39674;59.860;30.672;2022-07-23T11:09:10;100671.97;;;31.43;42.00
53758;BME280;39674;59.860;30.672;2022-07-23T11:12:40;100581.22;;;30.77;42.38
53758;BME280;39674;59.860;30.672;2022-07-23T11:15:18;100676.78;;;31.48;40.80
53758;BME280;39674;59.860;30.672;2022-07-23T11:18:14;100642.44;;;31.33;41.45
53758;BME280;39674;59.860;30.672;2022-07-23T11:21:51;100668.72;;;31.60;40.46
53758;BME280;39674;59.860;30.672;2022-07-23T11:27:38;100635.53;;;31.63;40.71
53758;BME280;39674;59.860;30.672;2022-07-23T11:30:41;100669.53;;;31.67;41.30
53758;BME280;39674;59.860;30.672;2022-07-23T11:33:25;100637.22;;;31.25;41.55
53758;BME280;39674;59.860;30.672;2022-07-23T11:36:51;100633.59;;;31.38;41.45
53758;BME280;39674;59.860;30.672;2022-07-23T11:39:29;100662.00;;;31.24;40.67
53758;BME280;39674;59.860;30.672;2022-07-23T11:42:23;100586.38;;;30.99;40.69
53758;BME280;39674;59.860;30.672;2022-07-23T11:45:02;100629.78;;;31.39;41.58
53758;BME280;39674;59.860;30.672;2022-07-23T11:47:37;100570.88;;;30.93;40.35
53758;BME280;39674;59.860;30.672;2022-07-23T11:50:18;100659.22;;;31.37;41.24
53758;BME280;39674;59.860;30.672;2022-07-23T11:52:56;100649.53;;;31.41;41.12
53758;BME280;39674;59.860;30.672;2022-07-23T11:55:41;100600.00;;;30.99;40.33
53758;BME280;39674;59.860;30.672;2022-07-23T11:59:03;100583.81;;;31.04;40.32
53758;BME280;39674;59.860;30.672;2022-07-23T12:02:11;100565.91;;;30.76;39.86
53758;BME280;39674;59.860;30.672;2022-07-23T12:05:22;100633.59;;;30.93;40.81
53758;BME280;39674;59.860;30.672;2022-07-23T12:08:44;100637.16;;;30.93;42.60
53758;BME280;39674;59.860;30.672;2022-07-23T12:11:21;100580.72;;;30.21;44.45
53758;BME280;39674;59.860;30.672;2022-07-23T12:13:58;100575.31;;;29.81;45.53
53758;BME280;39674;59.860;30.672;2022-07-23T12:19:54;100644.75;;;29.50;47.06
53758;BME280;39674;59.860;30.672;2022-07-23T12:23:29;100655.13;;;29.26;47.88
53758;BME280;39674;59.860;30.672;2022-07-23T12:26:37;100657.91;;;28.91;48.91
53758;BME280;39674;59.860;30.672;2022-07-23T12:29:39;100600.19;;;28.19;49.75
53758;BME280;39674;59.860;30.672;2022-07-23T12:32:36;100650.66;;;28.07;51.14
53758;BME280;39674;59.860;30.672;2022-07-23T12:35:44;100618.47;;;27.60;52.34
53758;BME280;39674;59.860;30.672;2022-07-23T12:38:36;100659.50;;;27.35;54.47
53758;BME280;39674;59.860;30.672;2022-07-23T12:41:17;100610.06;;;26.82;55.82
53758;BME280;39674;59.860;30.672;2022-07-23T12:44:14;100707.69;;;27.33;57.59
53758;BME280;39674;59.860;30.672;2022-07-23T12:47:14;100704.03;;;27.26;59.07
53758;BME280;39674;59.860;30.672;2022-07-23T13:07:18;100619.28;;;25.11;72.18
53758;BME280;39674;59.860;30.672;2022-07-23T13:12:05;100570.50;;;24.65;71.63
53758;BME280;39674;59.860;30.672;2022-07-23T13:25:18;100557.88;;;23.68;76.90
53758;BME280;39674;59.860;30.672;2022-07-23T13:28:08;100572.31;;;23.50;78.60
53758;BME280;39674;59.860;30.672;2022-07-23T13:30:55;100623.88;;;23.55;82.64
53758;BME280;39674;59.860;30.672;2022-07-23T13:38:47;100736.06;;;24.08;80.14
53758;BME280;39674;59.860;30.672;2022-07-23T13:41:35;100613.22;;;23.29;82.77
53758;BME280;39674;59.860;30.672;2022-07-23T13:46:18;100661.56;;;23.22;82.71
53758;BME280;39674;59.860;30.672;2022-07-23T13:52:12;100681.03;;;23.16;84.14
53758;BME280;39674;59.860;30.672;2022-07-23T13:55:51;100670.19;;;23.00;83.37
53758;BME280;39674;59.860;30.672;2022-07-23T13:58:47;100622.75;;;22.38;86.76
53758;BME280;39674;59.860;30.672;2022-07-23T14:01:55;100682.00;;;22.72;86.91
53758;BME280;39674;59.860;30.672;2022-07-23T14:04:56;100706.53;;;23.04;86.09
53758;BME280;39674;59.860;30.672;2022-07-23T14:07:38;100613.53;;;22.40;86.14
53758;BME280;39674;59.860;30.672;2022-07-23T14:10:12;100704.88;;;23.03;87.42
53758;BME280;39674;59.860;30.672;2022-07-23T14:12:48;100613.72;;;22.47;86.29
53758;BME280;39674;59.860;30.672;2022-07-23T14:15:43;100612.84;;;22.20;86.37
53758;BME280;39674;59.860;30.672;2022-07-23T14:18:35;100699.34;;;22.34;89.21
53758;BME280;39674;59.860;30.672;2022-07-23T14:21:24;100698.63;;;22.23;89.99
53758;BME280;39674;59.860;30.672;2022-07-23T14:28:22;100680.19;;;22.55;88.21
53758;BME280;39674;59.860;30.672;2022-07-23T14:32:21;100664.84;;;22.47;89.32
53758;BME280;39674;59.860;30.672;2022-07-23T14:35:30;100727.13;;;22.79;90.33
53758;BME280;39674;59.860;30.672;2022-07-23T14:48:15;100693.06;;;22.69;92.50
53758;BME280;39674;59.860;30.672;2022-07-23T14:51:21;100600.50;;;22.09;90.96
53758;BME280;39674;59.860;30.672;2022-07-23T14:58:11;100678.88;;;22.59;91.74
53758;BME280;39674;59.860;30.672;2022-07-23T15:01:18;100671.66;;;22.59;91.80
53758;BME280;39674;59.860;30.672;2022-07-23T15:04:05;100618.22;;;22.20;92.92
53758;BME280;39674;59.860;30.672;2022-07-23T15:07:34;100613.81;;;22.11;92.69
53758;BME280;39674;59.860;30.672;2022-07-23T15:11:10;100689.28;;;22.36;94.00
53758;BME280;39674;59.860;30.672;2022-07-23T15:16:26;100734.97;;;22.72;93.69
53758;BME280;39674;59.860;30.672;2022-07-23T15:45:28;100622.13;;;22.26;93.83
53758;BME280;39674;59.860;30.672;2022-07-23T15:48:24;100695.28;;;22.74;93.47
53758;BME280;39674;59.860;30.672;2022-07-23T17:52:15;100566.28;;;20.28;98.06
53758;BME280;39674;59.860;30.672;2022-07-23T17:58:05;100557.53;;;20.35;97.72
53758;BME280;39674;59.860;30.672;2022-07-23T18:00:55;100604.25;;;20.71;96.97
53758;BME280;39674;59.860;30.672;2022-07-23T18:03:38;100652.38;;;20.92;97.45
53758;BME280;39674;59.860;30.672;2022-07-23T18:06:43;100633.22;;;20.77;98.42
53758;BME280;39674;59.860;30.672;2022-07-23T18:09:40;100618.22;;;20.84;98.43
53758;BME280;39674;59.860;30.672;2022-07-23T18:12:46;100612.25;;;20.90;98.29
53758;BME280;39674;59.860;30.672;2022-07-23T18:16:01;100566.50;;;20.54;97.09
53758;BME280;39674;59.860;30.672;2022-07-23T18:19:19;100547.28;;;20.49;97.27
53758;BME280;39674;59.860;30.672;2022-07-23T18:22:23;100578.63;;;20.58;97.63
53758;BME280;39674;59.860;30.672;2022-07-23T18:26:23;100616.34;;;20.94;98.81
53758;BME280;39674;59.860;30.672;2022-07-23T18:28:38;100577.19;;;20.64;97.28
53758;BME280;39674;59.860;30.672;2022-07-23T18:31:23;100625.41;;;20.93;97.55
53758;BME280;39674;59.860;30.672;2022-07-23T18:34:09;100625.84;;;20.89;97.68
53758;BME280;39674;59.860;30.672;2022-07-23T18:36:50;100627.97;;;20.85;97.15
53758;BME280;39674;59.860;30.672;2022-07-23T18:39:38;100597.94;;;20.72;97.84
53758;BME280;39674;59.860;30.672;2022-07-23T18:42:26;100612.31;;;20.71;98.08
53758;BME280;39674;59.860;30.672;2022-07-23T19:04:42;100604.53;;;20.40;99.65
53758;BME280;39674;59.860;30.672;2022-07-23T19:07:55;100562.38;;;20.22;100.00
53758;BME280;39674;59.860;30.672;2022-07-23T19:21:36;100673.56;;;20.95;98.06
53758;BME280;39674;59.860;30.672;2022-07-23T19:24:46;100555.59;;;20.18;97.90
53758;BME280;39674;59.860;30.672;2022-07-23T19:27:29;100611.78;;;20.57;99.35
53758;BME280;39674;59.860;30.672;2022-07-23T19:30:36;100611.69;;;20.49;99.32
53758;BME280;39674;59.860;30.672;2022-07-23T19:33:27;100605.47;;;20.48;98.71
53758;BME280;39674;59.860;30.672;2022-07-23T19:43:23;100606.34;;;20.39;99.98
53758;BME280;39674;59.860;30.672;2022-07-23T19:50:01;100633.25;;;20.57;100.00
53758;BME280;39674;59.860;30.672;2022-07-23T19:53:15;100613.25;;;20.51;100.00
53758;BME280;39674;59.860;30.672;2022-07-23T19:56:07;100640.13;;;20.69;100.00
53758;BME280;39674;59.860;30.672;2022-07-23T19:59:37;100559.75;;;20.02;100.00
53758;BME280;39674;59.860;30.672;2022-07-23T20:02:41;100551.97;;;20.09;100.00
53758;BME280;39674;59.860;30.672;2022-07-23T20:05:35;100557.06;;;20.02;100.00
53758;BME280;39674;59.860;30.672;2022-07-23T20:08:28;100636.84;;;20.48;100.00
53758;BME280;39674;59.860;30.672;2022-07-23T20:11:50;100557.31;;;20.09;100.00
53758;BME280;39674;59.860;30.672;2022-07-23T20:15:10;100527.44;;;19.94;100.00
53758;BME280;39674;59.860;30.672;2022-07-23T20:17:54;100650.63;;;20.73;100.00
53758;BME280;39674;59.860;30.672;2022-07-23T20:20:54;100612.50;;;20.59;100.00
53758;BME280;39674;59.860;30.672;2022-07-23T20:23:37;100553.50;;;20.12;100.00
53758;BME280;39674;59.860;30.672;2022-07-23T20:26:31;100551.94;;;20.19;99.23
53758;BME280;39674;59.860;30.672;2022-07-23T20:29:45;100592.41;;;20.35;99.73
53758;BME280;39674;59.860;30.672;2022-07-23T20:32:38;100629.59;;;20.58;99.50
53758;BME280;39674;59.860;30.672;2022-07-23T20:35:35;100611.97;;;20.46;99.17
53758;BME280;39674;59.860;30.672;2022-07-23T20:38:17;100666.97;;;20.69;99.31
53758;BME280;39674;59.860;30.672;2022-07-23T20:41:24;100672.34;;;20.69;98.67
53758;BME280;39674;59.860;30.672;2022-07-23T20:44:15;100611.88;;;20.28;99.45
53758;BME280;39674;59.860;30.672;2022-07-23T20:46:55;100640.25;;;20.30;98.83
53758;BME280;39674;59.860;30.672;2022-07-23T20:50:26;100550.59;;;19.76;98.28
53758;BME280;39674;59.860;30.672;2022-07-23T20:52:56;100567.22;;;19.79;98.40
53758;BME280;39674;59.860;30.672;2022-07-23T20:55:55;100636.31;;;20.25;97.97
53758;BME280;39674;59.860;30.672;2022-07-23T20:58:39;100679.31;;;20.43;98.37
53758;BME280;39674;59.860;30.672;2022-07-23T21:01:18;100676.94;;;20.40;98.25
53758;BME280;39674;59.860;30.672;2022-07-23T21:04:37;100570.31;;;19.75;98.79
53758;BME280;39674;59.860;30.672;2022-07-23T21:13:06;100638.88;;;20.07;98.01
53758;BME280;39674;59.860;30.672;2022-07-23T21:18:00;100651.00;;;19.91;98.02
53758;BME280;39674;59.860;30.672;2022-07-23T21:21:20;100612.47;;;19.53;98.03
53758;BME280;39674;59.860;30.672;2022-07-23T21:24:19;100664.25;;;19.73;98.74
53758;BME280;39674;59.860;30.672;2022-07-23T21:27:18;100659.16;;;19.70;98.69
53758;BME280;39674;59.860;30.672;2022-07-23T21:31:00;100638.28;;;19.64;98.45
53758;BME280;39674;59.860;30.672;2022-07-23T21:34:21;100669.31;;;19.76;98.47
53758;BME280;39674;59.860;30.672;2022-07-23T21:37:39;100638.28;;;19.54;98.21
53758;BME280;39674;59.860;30.672;2022-07-23T21:40:25;100599.59;;;19.17;98.52
53758;BME280;39674;59.860;30.672;2022-07-23T21:43:25;100722.34;;;19.82;97.94
53758;BME280;39674;59.860;30.672;2022-07-23T21:49:18;100588.03;;;18.97;98.00
53758;BME280;39674;59.860;30.672;2022-07-23T21:52:08;100653.50;;;19.34;97.98